Aérodrome :
LOGIN :

S'inscrire | Disclaimer

   EN    FR    IT 

 










Légende :    VFR   VFR Marginal   IFR   IFR Intensif   IFR Très Intensif
Visi : 
Plafond : 
>= 8 km
>= 3000ft
5 à 8 km
1000 à 3000 ft
1500m à 5 km
500 à 1000 ft
800 à 1500m
200 à 500 ft
< 800m
< 200 ft
Symboles :   Orages  Brouillard  Fortes neiges  Fortes précipitations  Vent > 20 kt
SIGMETs :   Divers  Orages  Givrage  Turbulence  Onde Orograph.  Cendres Volcan.






- Altitude de l'aérodrome : 200 ft


EBBL - Klein Brogel AB

DERNIER METAR :
  • 180555Z 33005KT 9999 -RA BKN007 BKN014 04/04 Q1008 GRN GRN TEMPO YLO

METARs EXPIRÉS :
  • 180547Z 33005KT 9999 -RA BKN007 BKN014 04/04 Q1007 GRN GRN TEMPO YLO
  • 180525Z AUTO 33005KT 9999 -DZ OVC007/// 04/03 Q1007 GRN
  • 180455Z AUTO 33007KT 9999 -DZ OVC008/// 04/03 Q1007 GRN
  • 180425Z AUTO 34008KT 9999 -DZ OVC007/// 04/03 Q1007 GRN
  • 180355Z AUTO 35008KT 9999 -RA OVC007/// 04/03 Q1007 GRN
  • 180325Z AUTO 34009KT 9999 -RA OVC007/// 04/03 Q1007 GRN

Prévision TAF périmée.



MET'MAP, la Météo Aéronautique d'un coup d'oeil ! - Copyright ORBIFLY Décembre 2007 - Disclaimer

ORBIFLY MET'MAP TEAM :

Programmation & Développement : Alexandra Zaïnal
Conception & Développement : Baudouin d'Aumeries
Co-Programmation & Développement : Marc-Olivier Méhu
Soutien technique & logistique : Manuel Goepfert

Contact : metmap@orbifly.com




SOURCES & CREDITS :

   NOAA